Latest Weather Observations for Proserpine

IDQ60801

Issued at 9:35 pm EST Friday 1 August 2014 (issued every 30 minutes, with the page automatically refreshed every 10 minutes)

About weather observations | Map of weather stations | Latest weather observations for QLD | Other Formats
Station Details ID: 033247 Name: PROSERPINE AIRPORT Lat: -20.49 Lon: 148.56 Height: 19.7 m
Data from the previous 72 hours. | See also: Recent months at Proserpine
Date/Time
EST
Temp
°C
App
Temp
°C
Dew
Point
Rel
Hum
%
Delta-T
°C
Wind Press
QNH
hPa
Press
MSL
hPa
Rain
since 9 am
mm
Dir
 
Spd
km/h
Gust
km/h
Spd
kts
Gust
kts
01/09:30pm 15.7 17.2 14.7 94 0.6 W 0 0 0 0 1018.2 - 0.0
01/09:00pm 16.3 18.0 15.2 93 0.6 W 0 0 0 0 1018.0 1018.0 0.0
01/08:30pm 16.6 17.7 15.6 94 0.6 W 4 7 2 4 1018.0 - 0.0
01/08:00pm 17.3 19.4 16.2 93 0.7 CALM 0 0 0 0 1017.6 - 0.0
01/07:30pm 18.2 20.5 16.7 91 0.9 CALM 0 0 0 0 1017.1 - 0.0
01/07:00pm 19.1 21.1 16.9 87 1.3 NW 2 6 1 3 1016.7 - 0.0
01/06:30pm 20.3 21.5 17.3 83 1.8 N 7 7 4 4 1016.1 - 0.0
01/06:00pm 21.2 22.0 17.2 78 2.4 NNE 9 13 5 7 1015.6 1015.6 0.0
01/05:30pm 22.7 23.5 17.4 72 3.3 N 9 13 5 7 1015.3 - 0.0
01/05:00pm 23.9 25.2 17.6 68 3.9 NNE 7 11 4 6 1015.0 - 0.0
01/04:30pm 22.7 23.0 18.0 75 2.9 NNE 13 17 7 9 1014.8 - 0.0
01/04:00pm 23.5 23.6 16.5 65 4.3 NNE 11 17 6 9 1014.7 - 0.0
01/03:30pm 26.5 24.9 14.9 49 7.0 NNE 17 24 9 13 1014.5 - 0.0
01/03:00pm 27.4 26.4 15.7 48 7.2 N 15 22 8 12 1014.5 1014.5 0.0
01/02:30pm 26.8 25.7 15.2 49 7.0 NNE 15 22 8 12 1014.8 - 0.0
01/02:00pm 27.6 27.1 15.9 49 7.2 NNE 13 19 7 10 1015.1 - 0.0
01/01:30pm 26.7 26.5 15.7 51 6.7 NE 11 15 6 8 1015.4 - 0.0
01/01:00pm 26.6 25.5 14.4 47 7.3 NE 13 20 7 11 1015.8 - 0.0
01/12:30pm 26.1 26.2 15.5 52 6.4 NNW 9 19 5 10 1016.5 - 0.0
01/12:00pm 25.1 26.0 16.0 57 5.5 NNE 6 9 3 5 1017.1 1017.1 0.0
01/11:30am 24.4 24.9 16.6 61 4.8 WNW 9 11 5 6 1017.7 - 0.0
01/11:00am 26.0 27.2 17.4 59 5.4 N 7 17 4 9 1018.2 - 0.0
01/10:30am 25.1 26.5 17.3 62 4.9 NNW 6 19 3 10 1018.6 - 0.0
01/10:00am 23.6 24.9 17.1 67 4.0 NE 6 9 3 5 1018.9 - 0.0
01/09:30am 22.8 24.3 17.5 72 3.3 ENE 6 7 3 4 1019.1 - 0.0
01/09:00am 21.4 23.9 17.2 77 2.6 N 0 0 0 0 1019.1 1019.1 0.0
01/08:30am 19.2 21.5 16.8 86 1.4 CALM 0 0 0 0 1018.8 - 0.0
01/08:00am 17.0 18.9 15.7 92 0.8 CALM 0 0 0 0 1018.7 - 0.0
01/07:30am 15.2 16.7 14.6 96 0.3 CALM 0 0 0 0 1018.2 - 0.0
01/07:00am 14.0 15.2 13.7 98 0.2 CALM 0 0 0 0 1018.1 - 0.0
01/06:55am 14.0 15.2 13.7 98 0.2 CALM 0 0 0 0 1018.1 - 0.0
01/06:45am 13.8 14.8 13.3 97 0.3 CALM 0 0 0 0 1018.0 - 0.0
01/06:30am 13.6 14.5 13.0 96 0.3 CALM 0 0 0 0 1018.0 - 0.0
01/06:22am 13.8 14.7 13.0 95 0.4 CALM 0 0 0 0 1017.9 - 0.0
01/06:18am 14.3 15.5 13.7 96 0.3 CALM 0 0 0 0 1017.9 - 0.0
01/06:00am 14.5 15.7 13.9 96 0.3 SSE 0 2 0 1 1017.7 1017.7 0.0
01/05:45am 14.8 14.8 14.2 96 0.3 S 7 9 4 5 1017.6 - 0.0
01/05:30am 15.3 16.5 14.8 97 0.3 SW 2 7 1 4 1017.4 - 0.0
01/05:00am 14.8 15.4 14.3 97 0.3 SSW 4 6 2 3 1017.3 - 0.0
01/04:30am 14.3 14.7 13.8 97 0.3 WNW 4 6 2 3 1017.1 - 0.0
01/04:00am 14.2 14.1 13.9 98 0.2 SW 7 9 4 5 1017.1 - 0.0
01/03:39am 14.2 14.3 13.9 98 0.2 SW 6 7 3 4 1017.2 - 0.0
01/03:30am 14.1 14.5 13.8 98 0.2 SW 4 6 2 3 1017.2 - 0.0
01/03:22am 14.1 14.2 13.8 98 0.2 SW 6 7 3 4 1017.2 - 0.0
01/03:18am 14.1 14.2 13.8 98 0.2 SW 6 7 3 4 1017.2 - 0.0
01/03:04am 14.2 15.4 13.7 97 0.3 CALM 0 0 0 0 1017.3 - 0.0
01/03:00am 14.1 15.2 13.6 97 0.3 CALM 0 0 0 0 1017.3 1017.3 0.0
01/02:56am 14.2 15.4 13.7 97 0.3 CALM 0 0 0 0 1017.4 - 0.0
01/02:52am 14.2 15.4 13.7 97 0.3 CALM 0 0 0 0 1017.4 - 0.0
01/02:30am 14.5 15.7 13.9 96 0.3 CALM 0 0 0 0 1017.5 - 0.0
01/02:26am 14.5 15.7 13.9 96 0.3 CALM 0 0 0 0 1017.5 - 0.0
01/02:00am 15.0 15.3 14.5 97 0.3 SSW 6 7 3 4 1017.7 - 0.0
01/01:30am 14.9 14.6 14.4 97 0.3 SSW 9 13 5 7 1018.0 - 0.0
01/01:00am 14.8 14.5 14.3 97 0.3 SSW 9 9 5 5 1018.0 - 0.0
01/12:30am 15.1 14.5 14.6 97 0.3 SW 11 13 6 7 1018.2 - 0.0
01/12:00am 15.1 15.8 14.5 96 0.3 SW 4 13 2 7 1018.3 1018.3 0.0
 
Date/Time
EST
Temp
°C
App
Temp
°C
Dew
Point
Rel
Hum
%
Delta-T
°C
Wind Press
QNH
hPa
Press
MSL
hPa
Rain
since 9 am
mm
Dir
 
Spd
km/h
Gust
km/h
Spd
kts
Gust
kts
31/11:30pm 15.6 17.2 15.0 96 0.3 CALM 0 0 0 0 1018.3 - 0.0
31/11:00pm 15.8 17.5 15.2 96 0.3 CALM 0 0 0 0 1018.4 - 0.0
31/10:30pm 16.2 18.0 15.6 96 0.4 CALM 0 0 0 0 1018.4 - 0.0
31/10:00pm 16.4 18.4 15.9 97 0.3 CALM 0 0 0 0 1018.6 - 0.0
31/09:30pm 16.6 18.6 16.1 97 0.3 CALM 0 0 0 0 1018.7 - 0.0
31/09:00pm 16.4 16.9 15.6 95 0.5 SSW 7 9 4 5 1018.7 1018.7 0.0
31/08:30pm 17.2 17.6 16.2 94 0.6 S 9 13 5 7 1018.6 - 0.0
31/08:00pm 17.9 18.3 17.3 96 0.4 S 11 13 6 7 1018.3 - 0.0
31/07:30pm 17.5 18.4 16.5 94 0.6 SSE 7 9 4 5 1018.0 - 0.0
31/07:00pm 18.0 18.5 16.5 91 0.9 SE 9 11 5 6 1017.6 - 0.0
31/06:30pm 18.5 18.7 16.7 89 1.1 ESE 11 13 6 7 1017.1 - 0.0
31/06:00pm 19.7 19.3 16.3 81 2.0 ESE 13 17 7 9 1016.9 1016.9 0.0
31/05:30pm 21.0 20.3 16.4 75 2.8 E 15 20 8 11 1016.7 - 0.0
31/05:00pm 22.1 20.6 16.4 70 3.5 E 19 24 10 13 1016.5 - 0.0
31/04:30pm 22.8 21.3 16.4 67 3.9 E 19 24 10 13 1016.4 - 0.0
31/04:00pm 24.3 22.4 15.8 59 5.2 E 20 30 11 16 1016.2 - 0.0
31/03:30pm 25.0 23.0 15.0 53 6.0 E 19 24 10 13 1016.2 - 0.0
31/03:00pm 24.9 23.0 15.2 54 5.8 E 19 24 10 13 1016.2 1016.2 0.0
31/02:30pm 26.1 24.6 15.2 51 6.6 ESE 17 26 9 14 1016.2 - 0.0
31/02:00pm 26.3 24.7 12.7 43 7.9 ESE 13 19 7 10 1016.6 - 0.0
31/01:30pm 23.8 23.4 15.3 59 5.1 E 11 19 6 10 1017.2 - 0.0
31/01:00pm 24.0 23.7 15.5 59 5.1 E 11 17 6 9 1017.8 - 0.0
31/12:30pm 24.1 23.4 16.4 62 4.7 E 15 24 8 13 1018.3 - 0.0
31/12:00pm 24.1 23.5 16.6 63 4.6 E 15 24 8 13 1019.0 1019.0 0.0
31/11:30am 23.7 23.2 16.0 62 4.7 E 13 26 7 14 1019.7 - 0.0
31/11:00am 22.5 21.9 15.6 65 4.1 E 13 17 7 9 1019.9 - 0.0
31/10:30am 22.8 21.3 16.4 67 3.9 E 19 24 10 13 1020.2 - 0.0
31/10:00am 21.7 20.7 15.5 68 3.7 ESE 15 20 8 11 1020.6 - 0.0
31/09:30am 21.6 20.5 15.2 67 3.8 E 15 20 8 11 1020.6 - 0.0
31/09:00am 20.5 20.7 15.7 74 2.9 SSE 9 15 5 8 1020.4 1020.3 0.0
31/08:30am 17.9 18.4 15.0 83 1.7 SSE 6 7 3 4 1020.5 - 0.0
31/08:00am 15.5 16.8 14.0 91 0.8 CALM 0 0 0 0 1020.1 - 0.0
31/07:30am 14.4 14.3 13.3 93 0.6 SSE 6 7 3 4 1020.0 - 0.0
31/07:00am 13.7 14.6 12.9 95 0.4 CALM 0 0 0 0 1019.7 - 0.0
31/06:30am 13.4 14.3 12.8 96 0.3 CALM 0 0 0 0 1019.3 - 0.0
31/06:00am 12.9 13.7 12.6 98 0.2 CALM 0 4 0 2 1019.2 1019.2 0.0
31/05:30am 11.7 12.1 11.4 98 0.2 CALM 0 0 0 0 1019.2 - 0.0
31/05:00am 10.2 8.9 9.1 93 0.5 SW 6 9 3 5 1018.9 - 0.0
31/04:30am 10.9 10.6 10.0 94 0.5 SW 2 6 1 3 1018.9 - 0.0
31/04:00am 11.2 10.2 10.4 95 0.4 SSW 6 6 3 3 1019.0 - 0.0
31/03:30am 10.8 9.7 10.0 95 0.4 WSW 6 7 3 4 1019.1 - 0.0
31/03:00am 10.7 10.6 9.6 93 0.6 CALM 0 0 0 0 1019.4 1019.4 0.0
31/02:30am 11.8 11.3 10.9 94 0.5 W 4 6 2 3 1019.4 - 0.0
31/02:00am 11.6 10.7 10.7 94 0.5 SSW 6 7 3 4 1019.5 - 0.0
31/01:30am 11.7 10.6 10.8 94 0.5 SSW 7 9 4 5 1019.8 - 0.0
31/01:00am 12.2 12.6 11.4 95 0.4 CALM 0 0 0 0 1019.9 - 0.0
31/12:30am 12.8 13.3 11.7 93 0.6 CALM 0 0 0 0 1020.1 - 0.0
31/12:00am 12.7 12.1 11.6 93 0.6 SW 6 7 3 4 1020.0 1020.0 0.0
 
Date/Time
EST
Temp
°C
App
Temp
°C
Dew
Point
Rel
Hum
%
Delta-T
°C
Wind Press
QNH
hPa
Press
MSL
hPa
Rain
since 9 am
mm
Dir
 
Spd
km/h
Gust
km/h
Spd
kts
Gust
kts
30/11:30pm 12.6 11.3 11.2 91 0.7 SSW 9 11 5 6 1020.1 - 0.0
30/11:00pm 13.4 12.3 12.0 91 0.8 SSW 9 11 5 6 1020.5 - 0.0
30/10:30pm 13.9 12.2 12.6 92 0.7 SSW 13 15 7 8 1020.7 - 0.0
30/10:00pm 14.1 12.9 12.8 92 0.7 SSW 11 13 6 7 1020.9 - 0.0
30/09:30pm 14.3 12.7 12.9 91 0.8 SSW 13 15 7 8 1020.8 - 0.0
30/09:00pm 14.5 14.1 13.0 91 0.8 SSW 7 11 4 6 1020.7 1020.6 0.0
30/08:30pm 14.8 14.0 13.0 89 1.0 S 9 13 5 7 1020.6 - 0.0
30/08:00pm 15.4 15.3 13.4 88 1.1 SSW 6 9 3 5 1020.5 - 0.0
30/07:30pm 17.2 17.8 15.2 88 1.2 SSE 6 7 3 4 1020.1 - 0.0
30/07:00pm 16.3 15.7 13.6 84 1.5 S 9 9 5 5 1020.0 - 0.0
30/06:30pm 17.5 17.2 14.4 82 1.8 SSE 9 11 5 6 1019.7 - 0.0
30/06:00pm 18.8 17.9 14.9 78 2.3 ESE 13 17 7 9 1019.4 1019.4 0.0
30/05:30pm 20.2 18.7 14.1 68 3.5 ESE 15 20 8 11 1019.2 - 0.0
30/05:00pm 21.3 18.5 13.2 60 4.6 E 20 26 11 14 1019.0 - 0.0
30/04:30pm 22.5 19.3 11.9 51 6.0 E 20 28 11 15 1018.8 - 0.0
30/04:00pm 23.1 19.0 11.5 48 6.5 E 24 32 13 17 1018.7 - 0.0
30/03:30pm 23.7 19.9 11.1 45 7.0 E 22 28 12 15 1018.6 - 0.0
30/03:00pm 24.6 21.3 11.5 44 7.4 E 20 30 11 16 1018.6 1018.6 0.0
30/02:30pm 24.1 20.3 11.1 44 7.3 E 22 28 12 15 1018.9 - 0.0
30/02:00pm 24.7 21.6 11.6 44 7.4 E 19 28 10 15 1019.0 - 0.0
30/01:30pm 24.6 21.5 12.2 46 7.1 ESE 20 28 11 15 1019.3 - 0.0
30/01:00pm 23.8 21.7 12.4 48 6.5 E 15 30 8 16 1019.9 - 0.0
30/12:30pm 24.6 21.7 12.9 48 6.8 SE 20 30 11 16 1020.5 - 0.0
30/12:00pm 24.6 21.7 12.9 48 6.7 E 20 28 11 15 1021.1 1021.0 0.0
30/11:30am 24.0 21.3 13.5 52 6.1 ESE 20 28 11 15 1021.7 - 0.0
30/11:00am 23.0 20.9 13.5 55 5.5 ESE 17 26 9 14 1022.2 - 0.0
30/10:30am 22.3 20.7 13.9 59 4.9 SE 15 22 8 12 1022.4 - 0.0
30/10:00am 21.7 19.7 13.9 61 4.5 ESE 17 24 9 13 1022.6 - 0.0
30/09:30am 20.7 20.1 13.4 63 4.2 ESE 9 13 5 7 1022.8 - 0.0
30/09:00am 18.1 18.0 13.2 73 2.8 S 6 7 3 4 1022.8 1022.7 0.0
30/08:30am 16.0 16.1 12.7 81 1.8 S 4 7 2 4 1022.8 - 0.0
30/08:00am 13.8 13.3 12.2 90 0.9 SW 6 7 3 4 1022.5 - 0.0
30/07:30am 10.8 10.1 10.2 96 0.3 SSW 4 6 2 3 1022.3 - 0.0
30/07:00am 9.0 8.6 8.1 94 0.4 CALM 0 0 0 0 1022.1 - 0.0
30/06:30am 9.4 7.9 8.6 95 0.4 SSW 6 7 3 4 1021.8 - 0.0
30/06:00am 10.0 9.2 9.5 97 0.2 S 4 7 2 4 1021.5 1021.4 0.0
30/05:30am 9.8 8.3 9.3 97 0.2 SSW 7 11 4 6 1021.1 - 0.0
30/05:00am 9.8 7.9 9.2 96 0.3 SSW 9 11 5 6 1021.0 - 0.0
30/04:30am 10.3 8.5 9.5 95 0.4 SW 9 9 5 5 1021.0 - 0.0
30/04:00am 11.0 9.9 10.5 97 0.3 SSW 7 9 4 5 1020.9 - 0.0
30/03:30am 10.6 10.3 10.0 96 0.3 SSW 2 6 1 3 1020.8 - 0.0
30/03:00am 10.7 9.6 10.1 96 0.3 SW 6 7 3 4 1020.9 1020.8 0.0
30/02:30am 10.9 11.0 10.3 96 0.3 CALM 0 4 0 2 1021.0 - 0.0
30/02:00am 11.1 10.2 10.5 96 0.3 SSW 6 7 3 4 1021.1 - 0.0
30/01:30am 11.0 9.8 10.2 95 0.4 SSW 7 9 4 5 1021.4 - 0.0
30/01:00am 11.0 10.0 10.2 95 0.4 SW 6 9 3 5 1021.5 - 0.0
30/12:30am 11.9 12.3 11.3 96 0.3 CALM 0 6 0 3 1021.6 - 0.0
30/12:00am 11.9 11.1 11.1 95 0.4 SW 6 7 3 4 1021.7 1021.6 0.0
 
Date/Time
EST
Temp
°C
App
Temp
°C
Dew
Point
Rel
Hum
%
Delta-T
°C
Wind Press
QNH
hPa
Press
MSL
hPa
Rain
since 9 am
mm
Dir
 
Spd
km/h
Gust
km/h
Spd
kts
Gust
kts
29/11:30pm 12.3 12.1 11.7 96 0.3 SSW 4 7 2 4 1021.9 - 0.0
29/11:00pm 12.4 11.2 11.5 94 0.5 SSW 9 11 5 6 1022.0 - 0.0
29/10:30pm 12.4 11.1 11.3 93 0.6 SSW 9 11 5 6 1022.1 - 0.0
29/10:00pm 13.6 14.5 13.0 96 0.3 CALM 0 0 0 0 1022.1 - 0.0

Other Formats:

Comma delimited format used in spreadsheet applications
http://www.bom.gov.au/fwo/IDQ60801/IDQ60801.94365.axf

JavaScript Object Notation format (JSON) in row-major order
http://www.bom.gov.au/fwo/IDQ60801/IDQ60801.94365.json